Time;durP1;ratioP1;P1;durP2;ratioP2;P2;SDS_P1;SDS_P2;PMS_P1;PMS_P2;Temp;Humidity;BMP_temperature;BMP_pressure;BME280_temperature;BME280_humidity;BME280_pressure;Samples;Min_cycle;Max_cycle;Signal;HPM_P1;HPM_P2
2023/07/01 00:01:47;;;;;;;8.18;5.15;;;;;;;20.63;65.46;98376.84;5127535;28;20104;-73
2023/07/01 00:04:14;;;;;;;7.55;5.75;;;;;;;20.64;65.63;98377.69;5126968;28;20043;-73
2023/07/01 00:06:42;;;;;;;6.22;5.22;;;;;;;20.89;64.30;98365.00;5109191;28;20210;-74
2023/07/01 00:09:10;;;;;;;6.15;5.05;;;;;;;20.65;65.46;98372.13;5127695;28;20153;-74
2023/07/01 00:11:37;;;;;;;5.68;5.07;;;;;;;20.64;65.67;98375.84;5127103;28;20054;-74
2023/07/01 00:14:04;;;;;;;6.57;5.28;;;;;;;20.64;65.17;98373.16;5126769;28;20043;-73
2023/07/01 00:16:30;;;;;;;6.68;5.20;;;;;;;20.83;63.99;98371.91;5126924;28;20090;-74
2023/07/01 00:18:57;;;;;;;8.20;5.47;;;;;;;20.80;64.20;98372.25;5126979;28;20088;-74
2023/07/01 00:21:24;;;;;;;5.97;5.38;;;;;;;20.75;64.30;98370.09;5126914;28;20043;-74
2023/07/01 00:23:52;;;;;;;7.13;5.75;;;;;;;20.65;64.97;98360.53;5126913;28;20052;-73
2023/07/01 00:26:19;;;;;;;7.13;5.97;;;;;;;20.49;65.13;98375.69;5126870;28;20179;-73
2023/07/01 00:28:46;;;;;;;5.50;5.00;;;;;;;20.61;64.78;98357.34;5125821;28;20291;-73
2023/07/01 00:31:12;;;;;;;6.70;5.63;;;;;;;20.43;65.54;98360.22;5126769;28;20096;-74
2023/07/01 00:33:39;;;;;;;7.43;5.68;;;;;;;20.64;64.53;98354.31;5126390;28;20253;-73
2023/07/01 00:36:06;;;;;;;6.05;5.45;;;;;;;20.47;64.84;98350.81;5125543;28;20076;-73
2023/07/01 00:38:33;;;;;;;6.53;5.32;;;;;;;20.32;65.80;98352.53;5126680;28;20051;-73
2023/07/01 00:41:01;;;;;;;6.28;5.50;;;;;;;20.60;64.41;98349.44;5126589;28;20044;-72
2023/07/01 00:43:27;;;;;;;6.82;4.80;;;;;;;20.35;65.45;98351.34;5126226;28;20287;-73
2023/07/01 00:45:54;;;;;;;6.10;5.50;;;;;;;20.14;65.80;98344.59;5126099;28;20085;-73
2023/07/01 00:48:25;;;;;;;6.18;5.40;;;;;;;20.25;65.45;98345.28;5125407;28;20140;-73
2023/07/01 00:50:52;;;;;;;5.97;5.40;;;;;;;20.29;65.60;98349.31;5126789;28;20043;-73
2023/07/01 00:53:19;;;;;;;6.03;5.45;;;;;;;20.18;65.62;98345.94;5126456;28;20303;-73
2023/07/01 00:55:46;;;;;;;5.65;5.05;;;;;;;20.25;65.23;98343.44;5126941;28;20061;-73
2023/07/01 00:58:15;;;;;;;8.77;5.97;;;;;;;20.16;65.74;98337.22;5126121;28;20093;-72
2023/07/01 01:00:43;;;;;;;6.70;5.25;;;;;;;20.02;66.32;98345.97;5126658;28;20047;-73
2023/07/01 01:03:21;;;;;;;6.85;5.50;;;;;;;20.26;65.52;98337.06;5126037;28;20043;-73
2023/07/01 01:05:54;;;;;;;6.90;5.78;;;;;;;19.93;66.38;98298.56;5126605;28;20053;-73
2023/07/01 01:08:28;;;;;;;6.28;5.10;;;;;;;20.13;66.31;98334.84;5126071;28;20053;-73
2023/07/01 01:10:57;;;;;;;7.40;5.55;;;;;;;20.16;66.44;98331.81;5125698;28;20062;-73
2023/07/01 01:13:28;;;;;;;6.60;5.85;;;;;;;20.19;66.20;98327.97;5125937;28;20039;-73
2023/07/01 01:15:55;;;;;;;6.20;5.47;;;;;;;20.22;66.25;98326.78;5124717;28;20341;-73
2023/07/01 01:18:24;;;;;;;6.68;5.93;;;;;;;20.32;65.37;98327.47;5125981;28;20300;-73
2023/07/01 01:20:52;;;;;;;6.40;5.75;;;;;;;20.41;64.74;98326.44;5126451;28;20043;-73
2023/07/01 01:23:25;;;;;;;8.52;5.90;;;;;;;20.14;65.59;98323.09;5126132;28;20120;-73
2023/07/01 01:26:00;;;;;;;7.63;6.15;;;;;;;20.14;64.94;98333.84;5126145;28;20043;-73
2023/07/01 01:28:28;;;;;;;6.53;5.82;;;;;;;20.03;65.30;98334.19;5126097;28;20051;-73
2023/07/01 01:30:55;;;;;;;6.57;5.80;;;;;;;20.04;65.12;98329.66;5125744;28;20035;-73
2023/07/01 01:33:21;;;;;;;7.90;6.32;;;;;;;20.23;64.27;98329.31;5125770;28;20120;-73
2023/07/01 01:35:48;;;;;;;6.53;5.80;;;;;;;19.89;65.96;98325.97;5126318;28;20100;-73
2023/07/01 01:38:20;;;;;;;10.63;5.82;;;;;;;19.86;66.05;98319.91;5125399;28;20057;-74
2023/07/01 01:40:53;;;;;;;8.18;5.78;;;;;;;19.97;65.44;98321.41;5129461;28;20047;-74
2023/07/01 01:43:27;;;;;;;6.50;5.57;;;;;;;19.92;65.80;98321.09;5130001;28;20051;-73
2023/07/01 01:45:56;;;;;;;6.60;5.97;;;;;;;19.81;64.51;98281.09;5129658;28;20303;-73
2023/07/01 01:48:24;;;;;;;6.88;6.18;;;;;;;19.22;64.42;98171.03;5130174;28;20058;-73
2023/07/01 01:50:53;;;;;;;6.00;5.10;;;;;;;20.02;64.93;98324.44;5130154;28;20040;-73
2023/07/01 01:53:22;;;;;;;5.72;5.05;;;;;;;20.08;64.90;98322.94;5130051;28;20040;-74
2023/07/01 01:55:50;;;;;;;6.88;5.82;;;;;;;20.13;64.61;98318.72;5129753;28;20047;-74
2023/07/01 01:58:17;;;;;;;6.68;6.05;;;;;;;20.04;65.48;98319.72;5129690;28;20054;-74
2023/07/01 02:00:46;;;;;;;6.15;5.50;;;;;;;19.96;66.11;98318.91;5129094;28;20050;-73
2023/07/01 02:03:14;;;;;;;7.25;6.05;;;;;;;20.02;65.71;98320.91;5129618;28;20052;-73
2023/07/01 02:05:40;;;;;;;6.60;5.32;;;;;;;20.15;65.21;98321.25;5129596;28;20051;-73
2023/07/01 02:08:07;;;;;;;6.00;5.40;;;;;;;20.07;65.09;98321.25;5129265;28;20177;-73
2023/07/01 02:10:34;;;;;;;6.75;5.22;;;;;;;20.01;65.43;98317.38;5129534;28;20053;-74
2023/07/01 02:13:02;;;;;;;7.82;6.35;;;;;;;20.05;65.23;98328.66;5129477;28;20081;-73
2023/07/01 02:15:29;;;;;;;6.90;5.57;;;;;;;19.94;65.00;98323.59;5129457;28;20218;-73
2023/07/01 02:17:55;;;;;;;7.90;6.07;;;;;;;20.04;64.87;98318.91;5128227;28;20089;-73
2023/07/01 02:20:24;;;;;;;7.18;5.45;;;;;;;18.96;65.00;98159.63;5129300;28;20084;-73
2023/07/01 02:22:50;;;;;;;6.68;5.70;;;;;;;20.05;64.68;98329.47;5128725;28;20043;-74
2023/07/01 02:25:17;;;;;;;8.02;6.30;;;;;;;20.03;64.80;98325.28;5128138;28;20081;-73
2023/07/01 02:27:44;;;;;;;8.45;6.95;;;;;;;20.14;64.01;98320.41;5129190;28;20039;-73
2023/07/01 02:30:11;;;;;;;7.20;5.82;;;;;;;19.99;64.81;98323.94;5127985;28;20226;-74
2023/07/01 02:32:38;;;;;;;6.68;5.57;;;;;;;20.03;64.88;98328.81;5128468;28;20051;-74
2023/07/01 02:35:05;;;;;;;6.82;5.60;;;;;;;20.02;64.72;98327.13;5128743;28;20300;-74
2023/07/01 02:37:33;;;;;;;7.20;5.60;;;;;;;20.04;64.79;98337.72;5128925;28;20044;-72
2023/07/01 02:40:00;;;;;;;6.93;6.22;;;;;;;20.09;64.79;98332.69;5128662;28;20040;-74
2023/07/01 02:42:27;;;;;;;6.72;6.03;;;;;;;20.04;64.57;98332.34;5128591;28;20261;-73
2023/07/01 02:44:53;;;;;;;8.95;6.72;;;;;;;20.01;64.39;98333.53;5128595;28;20043;-74
2023/07/01 02:47:20;;;;;;;8.23;6.25;;;;;;;19.99;64.41;98332.84;5127957;28;20304;-73
2023/07/01 02:49:47;;;;;;;6.85;6.15;;;;;;;20.03;64.40;98334.19;5128736;28;20047;-73
2023/07/01 02:52:13;;;;;;;8.27;6.13;;;;;;;20.04;64.55;98329.66;5127629;28;20069;-73
2023/07/01 02:54:42;;;;;;;6.88;5.18;;;;;;;20.08;64.49;98329.16;5128370;28;20284;-74
2023/07/01 02:57:09;;;;;;;6.85;5.72;;;;;;;19.72;64.55;98272.16;5127388;28;20243;-74
2023/07/01 02:59:37;;;;;;;6.38;5.72;;;;;;;20.09;64.35;98333.50;5128289;28;20077;-74
2023/07/01 03:02:04;;;;;;;7.00;6.22;;;;;;;19.33;63.86;98218.22;5127401;28;20069;-73
2023/07/01 03:04:30;;;;;;;10.00;7.38;;;;;;;20.26;63.43;98330.84;5128201;28;20048;-74
2023/07/01 03:06:57;;;;;;;6.95;6.25;;;;;;;20.17;63.68;98338.88;5127301;28;20039;-73
2023/07/01 03:09:24;;;;;;;7.53;5.88;;;;;;;20.16;63.16;98331.81;5128095;28;20097;-74
2023/07/01 03:11:53;;;;;;;6.90;5.80;;;;;;;19.77;63.36;98288.63;5128604;28;20109;-74
2023/07/01 03:14:20;;;;;;;6.57;5.88;;;;;;;20.24;62.84;98341.78;5128273;28;20039;-73
2023/07/01 03:16:46;;;;;;;8.25;7.00;;;;;;;20.37;62.46;98341.25;5128172;27;20039;-73
2023/07/01 03:19:13;;;;;;;11.07;6.15;;;;;;;19.66;63.34;98262.09;5128173;28;20051;-73
2023/07/01 03:21:40;;;;;;;6.75;6.05;;;;;;;20.11;63.39;98341.41;5127847;28;20049;-74
2023/07/01 03:24:07;;;;;;;7.25;6.45;;;;;;;20.01;63.28;98333.53;5128092;28;20142;-74
2023/07/01 03:26:34;;;;;;;8.05;6.80;;;;;;;20.27;62.93;98341.44;5127734;28;20085;-74
2023/07/01 03:29:02;;;;;;;7.30;6.32;;;;;;;20.14;63.23;98344.59;5127695;28;20260;-72
2023/07/01 03:31:29;;;;;;;7.35;6.22;;;;;;;20.06;63.44;98344.63;5126542;28;20050;-73
2023/07/01 03:33:55;;;;;;;7.30;6.60;;;;;;;20.03;63.96;98342.25;5127905;28;20051;-74
2023/07/01 03:36:22;;;;;;;8.27;6.50;;;;;;;20.00;64.18;98345.28;5127864;28;20048;-74
2023/07/01 03:38:49;;;;;;;7.63;6.32;;;;;;;20.03;64.14;98344.94;5127407;28;20100;-74
2023/07/01 03:41:16;;;;;;;6.93;6.30;;;;;;;20.12;63.96;98343.94;5128314;28;20232;-74
2023/07/01 03:43:42;;;;;;;7.55;6.45;;;;;;;20.09;64.08;98349.66;5127666;28;20047;-73
2023/07/01 03:46:10;;;;;;;7.10;6.00;;;;;;;20.05;63.86;98347.47;5126522;28;20051;-74
2023/07/01 03:48:37;;;;;;;7.57;6.78;;;;;;;20.06;63.93;98344.63;5127320;28;20044;-74
2023/07/01 03:51:04;;;;;;;7.15;6.43;;;;;;;20.03;63.63;98326.13;5127219;28;20040;-74
2023/07/01 03:53:31;;;;;;;7.88;7.18;;;;;;;20.34;62.98;98349.66;5127762;28;20051;-73
2023/07/01 03:55:57;;;;;;;9.02;7.70;;;;;;;20.11;64.23;98346.78;5127418;28;20051;-74
2023/07/01 03:58:24;;;;;;;8.70;7.63;;;;;;;20.10;64.47;98345.97;5127206;28;20100;-74
2023/07/01 04:00:52;;;;;;;8.93;8.02;;;;;;;20.29;63.35;98349.31;5127343;28;20050;-74
2023/07/01 04:03:23;;;;;;;10.07;9.07;;;;;;;19.25;63.86;98210.16;5126810;28;20112;-74
2023/07/01 04:05:50;;;;;;;9.35;8.20;;;;;;;20.03;64.48;98353.03;5127310;28;20040;-74
2023/07/01 04:08:17;;;;;;;9.23;8.27;;;;;;;20.15;63.66;98348.97;5127274;28;20172;-73
2023/07/01 04:10:44;;;;;;;9.38;8.38;;;;;;;20.14;64.02;98347.28;5127206;28;20051;-73
2023/07/01 04:13:10;;;;;;;10.35;8.45;;;;;;;20.15;64.25;98353.50;5126871;28;20044;-74
2023/07/01 04:15:37;;;;;;;10.90;9.00;;;;;;;20.30;63.31;98346.47;5126805;28;20035;-74
2023/07/01 04:18:04;;;;;;;12.20;9.65;;;;;;;20.26;63.69;98347.81;5125835;28;20036;-74
2023/07/01 04:20:32;;;;;;;8.75;7.85;;;;;;;20.17;64.24;98352.34;5127276;28;20040;-74
2023/07/01 04:22:59;;;;;;;10.85;9.13;;;;;;;20.10;64.45;98335.19;5125818;28;20050;-72
2023/07/01 04:25:26;;;;;;;9.88;8.75;;;;;;;20.21;65.30;98347.47;5126083;28;20096;-74
2023/07/01 04:27:52;;;;;;;9.63;8.63;;;;;;;20.32;64.34;98343.59;5126630;28;20092;-74
2023/07/01 04:30:19;;;;;;;10.77;8.50;;;;;;;20.24;64.44;98349.00;5126522;28;20044;-74
2023/07/01 04:32:45;;;;;;;9.30;8.02;;;;;;;20.21;64.17;98344.75;5126399;28;20070;-74
2023/07/01 04:35:12;;;;;;;11.20;9.85;;;;;;;20.22;64.18;98351.84;5127033;28;20043;-74
2023/07/01 04:37:40;;;;;;;10.20;8.43;;;;;;;20.24;64.44;98346.31;5126359;28;20050;-74
2023/07/01 04:40:09;;;;;;;13.63;8.95;;;;;;;20.33;64.19;98347.97;5126393;28;20058;-74
2023/07/01 04:42:35;;;;;;;10.27;8.50;;;;;;;20.32;63.96;98349.81;5126043;28;20084;-73
2023/07/01 04:45:02;;;;;;;10.48;9.38;;;;;;;20.28;64.06;98358.41;5126539;28;20110;-74
2023/07/01 04:47:30;;;;;;;12.20;9.95;;;;;;;20.27;64.18;98362.09;5126259;28;20307;-73
2023/07/01 04:49:57;;;;;;;12.23;9.35;;;;;;;20.17;64.62;98357.72;5126795;28;20035;-74
2023/07/01 04:52:25;;;;;;;10.88;9.43;;;;;;;20.19;64.33;98358.38;5126422;28;20048;-73
2023/07/01 04:54:53;;;;;;;10.38;9.38;;;;;;;19.39;65.05;98249.81;5126458;28;20055;-73
2023/07/01 04:57:20;;;;;;;10.52;9.15;;;;;;;19.80;64.85;98315.22;5126612;28;20061;-73
2023/07/01 04:59:47;;;;;;;10.38;9.38;;;;;;;20.09;64.98;98346.97;5126195;28;20064;-73
2023/07/01 05:02:14;;;;;;;10.45;9.20;;;;;;;19.61;65.11;98274.34;5126075;28;20051;-73
2023/07/01 05:04:40;;;;;;;11.88;9.75;;;;;;;20.24;64.46;98357.91;5126028;28;20040;-73
2023/07/01 05:07:07;;;;;;;9.80;8.85;;;;;;;19.43;64.77;98229.69;5126334;28;20039;-73
2023/07/01 05:09:34;;;;;;;10.63;9.50;;;;;;;20.10;65.28;98362.09;5125158;28;20048;-73
2023/07/01 05:12:02;;;;;;;10.48;9.38;;;;;;;20.13;65.28;98345.63;5126242;28;20234;-73
2023/07/01 05:14:29;;;;;;;11.57;8.75;;;;;;;19.42;65.05;98233.38;5126178;28;20304;-73
2023/07/01 05:16:56;;;;;;;11.38;10.05;;;;;;;20.29;64.86;98354.72;5130573;28;20051;-73
2023/07/01 05:19:22;;;;;;;9.45;8.43;;;;;;;20.27;64.88;98349.50;5129268;28;20238;-73
2023/07/01 05:21:50;;;;;;;10.52;9.52;;;;;;;20.27;64.67;98362.09;5129276;28;20242;-73
2023/07/01 05:24:17;;;;;;;10.68;8.90;;;;;;;20.20;65.36;98351.16;5130696;28;20108;-73
2023/07/01 05:26:46;;;;;;;9.30;8.48;;;;;;;20.05;64.81;98316.03;5130328;28;20043;-73
2023/07/01 05:29:14;;;;;;;10.02;9.00;;;;;;;20.38;64.59;98357.22;5129218;28;20043;-73
2023/07/01 05:31:41;;;;;;;11.30;9.27;;;;;;;20.22;65.00;98357.25;5128921;28;20127;-74
2023/07/01 05:34:08;;;;;;;11.35;8.55;;;;;;;20.22;65.48;98368.00;5130500;28;20191;-74
2023/07/01 05:36:34;;;;;;;10.48;9.18;;;;;;;20.20;65.69;98364.59;5129307;28;20036;-73
2023/07/01 05:39:03;;;;;;;10.50;9.13;;;;;;;20.35;65.04;98376.41;5129773;28;20059;-73
2023/07/01 05:41:30;;;;;;;10.30;9.18;;;;;;;20.30;65.41;98368.00;5130107;28;20074;-73
2023/07/01 05:43:56;;;;;;;10.65;9.25;;;;;;;20.34;65.69;98365.81;5130033;28;20044;-73
2023/07/01 05:46:25;;;;;;;12.80;8.80;;;;;;;20.33;65.37;98367.66;5129727;28;20054;-73
2023/07/01 05:48:51;;;;;;;11.43;9.18;;;;;;;20.37;65.36;98373.53;5129507;28;20036;-73
2023/07/01 05:51:18;;;;;;;9.52;8.55;;;;;;;19.63;65.79;98250.84;5129808;28;20093;-73
2023/07/01 05:53:45;;;;;;;9.20;7.60;;;;;;;20.38;65.24;98367.13;5130109;28;20051;-73
2023/07/01 05:56:12;;;;;;;11.55;8.93;;;;;;;20.36;65.51;98363.78;5129834;28;20089;-73
2023/07/01 05:58:39;;;;;;;10.70;8.07;;;;;;;20.36;65.84;98367.31;5129728;28;20271;-73
2023/07/01 06:01:05;;;;;;;9.48;8.40;;;;;;;20.40;65.41;98365.13;5129763;28;20115;-73
2023/07/01 06:03:33;;;;;;;8.95;8.05;;;;;;;20.39;65.57;98368.81;5129957;28;20050;-73
2023/07/01 06:06:00;;;;;;;11.73;9.38;;;;;;;20.43;65.23;98368.31;5129003;28;20251;-74
2023/07/01 06:08:27;;;;;;;10.90;8.93;;;;;;;20.48;65.08;98376.72;5129547;28;20291;-73
2023/07/01 06:10:54;;;;;;;11.38;9.10;;;;;;;20.51;64.50;98370.16;5129669;28;20249;-74
2023/07/01 06:13:21;;;;;;;10.73;9.05;;;;;;;20.57;64.52;98384.78;5129468;28;20054;-73
2023/07/01 06:15:48;;;;;;;9.77;8.73;;;;;;;20.61;64.52;98384.25;5128261;28;20046;-73
2023/07/01 06:18:14;;;;;;;11.25;9.23;;;;;;;20.64;64.47;98383.91;5129585;28;20165;-73
2023/07/01 06:20:43;;;;;;;11.23;8.43;;;;;;;20.62;64.08;98385.09;5128767;28;20051;-73
2023/07/01 06:23:10;;;;;;;8.93;7.88;;;;;;;20.60;64.40;98387.13;5129119;28;20058;-73
2023/07/01 06:25:36;;;;;;;9.35;8.23;;;;;;;20.67;64.24;98377.34;5128890;28;20039;-73
2023/07/01 06:28:03;;;;;;;11.63;9.88;;;;;;;20.73;64.07;98379.34;5129456;28;20039;-73
2023/07/01 06:30:30;;;;;;;8.48;7.57;;;;;;;20.64;63.60;98364.22;5128997;28;20062;-73
2023/07/01 06:32:56;;;;;;;10.52;7.85;;;;;;;20.75;63.99;98386.25;5127877;28;20258;-73
2023/07/01 06:35:23;;;;;;;9.15;7.97;;;;;;;20.81;63.53;98387.41;5128756;28;20241;-73
2023/07/01 06:37:51;;;;;;;11.57;8.95;;;;;;;20.88;63.50;98388.38;5129188;28;20284;-73
2023/07/01 06:40:18;;;;;;;9.88;8.80;;;;;;;20.90;62.96;98380.13;5128326;28;20093;-73
2023/07/01 06:42:46;;;;;;;8.65;7.75;;;;;;;20.92;63.19;98380.81;5128677;28;20192;-73
2023/07/01 06:45:13;;;;;;;8.98;7.93;;;;;;;20.97;62.69;98381.13;5129102;28;20048;-73
2023/07/01 06:47:39;;;;;;;8.88;7.55;;;;;;;20.93;63.05;98380.63;5129331;28;20035;-73
2023/07/01 06:50:07;;;;;;;10.65;8.15;;;;;;;20.93;62.54;98377.09;5128684;28;20349;-71
2023/07/01 06:52:34;;;;;;;10.30;8.35;;;;;;;20.99;62.54;98381.78;5127458;28;20252;-72
2023/07/01 06:55:02;;;;;;;7.72;6.95;;;;;;;21.03;62.19;98383.16;5128394;28;20040;-73
2023/07/01 06:57:30;;;;;;;10.73;7.70;;;;;;;21.07;62.21;98387.19;5127432;28;20043;-73
2023/07/01 06:59:56;;;;;;;9.60;7.93;;;;;;;21.02;61.88;98378.75;5128753;28;20044;-73
2023/07/01 07:02:23;;;;;;;9.30;8.15;;;;;;;21.06;62.32;98388.19;5128794;28;20044;-73
2023/07/01 07:04:50;;;;;;;8.68;7.78;;;;;;;21.08;62.17;98384.31;5128089;28;20040;-73
2023/07/01 07:07:18;;;;;;;9.40;8.45;;;;;;;20.64;61.72;98322.00;5127229;28;20043;-73
2023/07/01 07:09:45;;;;;;;8.27;6.82;;;;;;;21.09;61.81;98374.38;5128418;28;20043;-73
2023/07/01 07:12:13;;;;;;;9.63;8.02;;;;;;;21.11;61.79;98373.19;5128515;28;20161;-71
2023/07/01 07:14:40;;;;;;;9.02;7.90;;;;;;;21.08;61.95;98376.22;5127987;28;20054;-72
2023/07/01 07:17:07;;;;;;;9.88;7.93;;;;;;;21.08;62.06;98376.22;5128263;28;20044;-71
2023/07/01 07:19:34;;;;;;;8.57;6.88;;;;;;;21.11;61.99;98375.88;5127827;28;20040;-72
2023/07/01 07:22:01;;;;;;;9.05;7.72;;;;;;;21.08;61.74;98375.38;5128081;28;20051;-72
2023/07/01 07:24:27;;;;;;;9.68;8.23;;;;;;;21.04;61.96;98371.38;5126869;28;20040;-73
2023/07/01 07:26:56;;;;;;;9.10;8.00;;;;;;;21.11;62.18;98373.19;5127958;28;20043;-73
2023/07/01 07:29:25;;;;;;;9.30;7.72;;;;;;;21.12;61.84;98371.31;5127931;28;20047;-73
2023/07/01 07:31:52;;;;;;;8.88;7.53;;;;;;;21.14;61.97;98367.44;5127239;28;20060;-73
2023/07/01 07:34:18;;;;;;;9.85;8.10;;;;;;;21.18;61.94;98372.47;5127548;28;20043;-73
2023/07/01 07:36:45;;;;;;;11.05;7.85;;;;;;;21.12;62.19;98368.63;5127703;28;20357;-73
2023/07/01 07:39:12;;;;;;;9.02;8.07;;;;;;;21.09;62.08;98368.97;5127335;28;20043;-73
2023/07/01 07:41:39;;;;;;;9.27;7.07;;;;;;;21.11;61.76;98381.25;5127430;28;20043;-73
2023/07/01 07:44:06;;;;;;;9.00;7.82;;;;;;;21.14;61.58;98375.53;5127904;28;20059;-73
2023/07/01 07:46:35;;;;;;;9.38;8.00;;;;;;;21.22;61.34;98373.81;5126563;28;20040;-73
2023/07/01 07:49:02;;;;;;;9.20;8.05;;;;;;;21.22;61.26;98379.19;5127341;28;20237;-73
2023/07/01 07:51:29;;;;;;;9.00;8.10;;;;;;;21.02;61.43;98336.53;5127545;28;20051;-73
2023/07/01 07:53:56;;;;;;;10.15;8.18;;;;;;;21.36;61.59;98375.75;5127451;28;20051;-73
2023/07/01 07:56:23;;;;;;;9.38;8.40;;;;;;;21.40;61.74;98367.13;5127218;28;20043;-73
2023/07/01 07:58:50;;;;;;;9.23;8.23;;;;;;;21.19;61.77;98337.28;5127018;28;20043;-73
2023/07/01 08:01:17;;;;;;;10.35;8.15;;;;;;;21.17;61.55;98320.44;5126973;28;20039;-73
2023/07/01 08:03:45;;;;;;;9.80;8.05;;;;;;;21.53;61.44;98374.66;5126152;28;20073;-73
2023/07/01 08:06:12;;;;;;;9.68;8.20;;;;;;;21.57;61.43;98380.53;5127128;28;20108;-73
2023/07/01 08:08:38;;;;;;;9.95;7.97;;;;;;;21.62;61.33;98376.28;5126643;28;20052;-73
2023/07/01 08:11:05;;;;;;;10.60;7.95;;;;;;;21.69;61.75;98379.09;5126468;28;20043;-73
2023/07/01 08:13:32;;;;;;;10.63;8.95;;;;;;;21.77;61.45;98376.34;5126964;28;20296;-73
2023/07/01 08:15:58;;;;;;;9.65;8.60;;;;;;;21.70;61.74;98378.91;5127020;28;20043;-73
2023/07/01 08:18:25;;;;;;;10.10;8.85;;;;;;;21.77;61.40;98384.44;5126463;28;20189;-73
2023/07/01 08:20:53;;;;;;;9.88;8.88;;;;;;;21.84;61.62;98384.59;5126690;28;20104;-72
2023/07/01 08:23:20;;;;;;;11.52;9.05;;;;;;;21.83;61.83;98380.22;5126873;28;20039;-72
2023/07/01 08:25:47;;;;;;;10.05;9.05;;;;;;;21.84;62.18;98376.50;5126252;28;20092;-73
2023/07/01 08:28:13;;;;;;;10.65;9.65;;;;;;;21.88;62.23;98375.97;5126797;28;20237;-73
2023/07/01 08:30:40;;;;;;;9.45;8.55;;;;;;;21.93;61.89;98375.41;5126986;28;20040;-72
2023/07/01 08:33:07;;;;;;;12.55;9.93;;;;;;;21.95;62.17;98373.38;5126341;28;20056;-73
2023/07/01 08:35:34;;;;;;;10.75;9.52;;;;;;;22.00;62.05;98373.69;5126247;28;20273;-73
2023/07/01 08:38:02;;;;;;;10.93;9.82;;;;;;;22.05;62.39;98376.66;5125456;28;20040;-73
2023/07/01 08:40:28;;;;;;;11.75;10.55;;;;;;;22.09;62.04;98369.91;5126840;28;20039;-73
2023/07/01 08:43:01;;;;;;;10.82;9.70;;;;;;;22.17;61.85;98364.44;5125424;28;20258;-73
2023/07/01 08:45:30;;;;;;;12.25;10.23;;;;;;;22.03;61.70;98333.69;5126863;28;20250;-73
2023/07/01 08:47:58;;;;;;;11.93;10.77;;;;;;;22.16;61.49;98367.31;5126465;28;20287;-73
2023/07/01 08:50:31;;;;;;;10.70;9.60;;;;;;;22.19;61.52;98365.09;5125250;28;20040;-73
2023/07/01 08:53:04;;;;;;;12.93;10.50;;;;;;;22.22;60.92;98367.41;5126450;28;20047;-73
2023/07/01 08:55:31;;;;;;;11.73;10.38;;;;;;;22.31;61.10;98370.88;5125374;28;20088;-73
2023/07/01 08:57:58;;;;;;;12.73;11.43;;;;;;;22.32;60.47;98369.84;5125283;28;20063;-73
2023/07/01 09:00:25;;;;;;;12.35;10.90;;;;;;;22.26;60.61;98367.88;5125735;28;20048;-73
2023/07/01 09:02:53;;;;;;;14.88;11.30;;;;;;;22.35;60.91;98373.03;5126339;28;20055;-72
2023/07/01 09:05:20;;;;;;;13.70;10.38;;;;;;;22.33;60.79;98374.25;5126268;28;20051;-73
2023/07/01 09:07:47;;;;;;;11.65;10.48;;;;;;;22.39;61.03;98382.44;5126215;28;20039;-73
2023/07/01 09:10:15;;;;;;;13.13;10.48;;;;;;;22.45;60.95;98380.91;5125820;28;20039;-73
2023/07/01 09:12:42;;;;;;;12.98;10.55;;;;;;;22.54;60.78;98376.25;5125772;28;20097;-73
2023/07/01 09:15:10;;;;;;;12.55;10.98;;;;;;;22.54;60.26;98363.63;5126508;28;20044;-73
2023/07/01 09:17:38;;;;;;;17.13;11.70;;;;;;;22.55;60.41;98368.00;5125071;28;20043;-73
2023/07/01 09:20:07;;;;;;;12.57;11.23;;;;;;;22.66;60.06;98369.41;5125815;28;20216;-73
2023/07/01 09:22:35;;;;;;;13.48;12.02;;;;;;;22.69;59.25;98372.59;5125014;28;20304;-73
2023/07/01 09:25:02;;;;;;;13.95;11.85;;;;;;;22.78;59.27;98375.19;5124941;28;20040;-73
2023/07/01 09:27:42;;;;;;;13.52;12.00;;;;;;;22.83;59.06;98370.06;5125970;28;20051;-73
2023/07/01 09:30:25;;;;;;;14.90;12.30;;;;;;;22.88;58.32;98373.06;5125685;28;20042;-73
2023/07/01 09:32:52;;;;;;;14.98;12.48;;;;;;;22.90;58.30;98373.69;5125527;28;20063;-73
2023/07/01 09:35:18;;;;;;;15.05;13.50;;;;;;;22.94;58.43;98372.31;5126224;28;20110;-72
2023/07/01 09:37:45;;;;;;;15.55;12.70;;;;;;;22.90;57.30;98371.00;5125502;28;20231;-73
2023/07/01 09:40:20;;;;;;;13.13;11.77;;;;;;;22.87;57.68;98371.38;5125629;28;20051;-73
2023/07/01 09:42:52;;;;;;;14.43;12.65;;;;;;;22.89;57.92;98367.47;5125968;28;20043;-73
2023/07/01 09:45:19;;;;;;;13.98;12.52;;;;;;;22.55;58.13;98291.56;5125904;28;20039;-73
2023/07/01 09:47:51;;;;;;;13.77;12.30;;;;;;;23.08;57.20;98357.09;5125994;28;20221;-73
2023/07/01 09:50:23;;;;;;;13.65;12.18;;;;;;;23.06;56.50;98354.59;5126195;28;20049;-73
2023/07/01 09:52:52;;;;;;;15.98;12.10;;;;;;;22.95;55.96;98347.81;5125494;28;20043;-73
2023/07/01 09:55:19;;;;;;;15.40;12.18;;;;;;;22.97;56.31;98350.31;5124706;28;20084;-73
2023/07/01 09:57:46;;;;;;;13.43;12.02;;;;;;;23.01;56.10;98352.44;5125764;28;20284;-72
2023/07/01 10:00:16;;;;;;;13.73;12.30;;;;;;;22.96;56.21;98346.78;5126244;28;20043;-73
2023/07/01 10:02:44;;;;;;;14.30;12.05;;;;;;;23.06;56.36;98354.59;5129687;28;20043;-72
2023/07/01 10:05:12;;;;;;;14.02;12.00;;;;;;;23.11;56.32;98346.75;5128527;28;20039;-72
2023/07/01 10:07:39;;;;;;;15.07;13.18;;;;;;;21.06;56.24;98003.00;5129534;28;20051;-73
2023/07/01 10:10:11;;;;;;;14.48;12.93;;;;;;;23.20;56.10;98347.50;5129515;28;20433;-73
2023/07/01 10:12:40;;;;;;;13.90;12.40;;;;;;;23.15;55.56;98339.13;5129168;28;20359;-73
2023/07/01 10:15:10;;;;;;;13.98;12.30;;;;;;;23.17;55.62;98340.59;5129095;28;20092;-73
2023/07/01 10:17:48;;;;;;;13.60;12.30;;;;;;;23.28;56.06;98332.03;5128909;28;20084;-72
2023/07/01 10:20:27;;;;;;;15.90;14.15;;;;;;;23.33;55.73;98324.19;5128512;28;20110;-73
2023/07/01 10:22:54;;;;;;;14.02;12.23;;;;;;;23.29;55.49;98322.06;5128641;28;20085;-73
2023/07/01 10:25:30;;;;;;;15.48;12.40;;;;;;;23.33;55.11;98326.06;5129172;28;20096;-73
2023/07/01 10:28:07;;;;;;;14.45;12.95;;;;;;;23.28;55.14;98325.78;5128104;28;20039;-73
2023/07/01 10:31:11;;;;;;;14.70;13.20;;;;;;;23.34;54.71;98325.88;5129141;28;20038;-73
2023/07/01 10:33:58;;;;;;;14.77;13.18;;;;;;;23.34;54.47;98325.88;5127770;28;20354;-73
2023/07/01 10:36:26;;;;;;;13.63;11.90;;;;;;;23.41;54.82;98320.53;5129251;28;20097;-74
2023/07/01 10:38:53;;;;;;;15.52;12.63;;;;;;;23.50;54.62;98313.13;5128501;28;20110;-74
2023/07/01 10:41:53;;;;;;;16.25;12.65;;;;;;;23.53;55.22;98316.28;5127771;28;20047;-73
2023/07/01 10:44:24;;;;;;;16.23;12.98;;;;;;;23.57;54.84;98324.84;5128396;28;20059;-73
2023/07/01 10:47:14;;;;;;;17.40;15.43;;;;;;;23.57;54.98;98312.19;5129049;28;20233;-73
2023/07/01 10:50:07;;;;;;;15.32;13.48;;;;;;;23.61;54.09;98307.22;5128987;28;20103;-73
2023/07/01 10:53:01;;;;;;;16.83;13.80;;;;;;;23.68;54.60;98305.41;5128239;28;20104;-73
2023/07/01 10:55:35;;;;;;;16.27;13.77;;;;;;;23.68;54.84;98310.81;5127404;28;20315;-73
2023/07/01 10:58:23;;;;;;;15.25;12.85;;;;;;;23.71;54.11;98307.72;5127442;28;20081;-73
2023/07/01 11:00:51;;;;;;;15.88;13.55;;;;;;;23.80;53.96;98313.84;5127355;28;20039;-73
2023/07/01 11:03:58;;;;;;;15.13;13.52;;;;;;;23.83;53.64;98299.94;5128098;28;20054;-73
2023/07/01 11:06:26;;;;;;;16.30;14.55;;;;;;;23.95;53.83;98301.91;5128071;28;20292;-73
2023/07/01 11:08:54;;;;;;;15.40;13.38;;;;;;;23.96;53.67;98298.19;5127986;28;20043;-73
2023/07/01 11:11:23;;;;;;;18.83;14.27;;;;;;;23.36;53.25;98185.94;5128378;28;20044;-73
2023/07/01 11:14:01;;;;;;;16.15;14.45;;;;;;;24.07;53.21;98296.00;5127139;28;20180;-73
2023/07/01 11:16:28;;;;;;;15.57;13.98;;;;;;;24.06;53.25;98295.16;5127964;28;20081;-74
2023/07/01 11:18:57;;;;;;;15.15;13.60;;;;;;;23.99;53.89;98289.72;5127781;28;20235;-74
2023/07/01 11:21:26;;;;;;;13.77;12.30;;;;;;;23.88;54.74;98287.50;5127939;28;20044;-73
2023/07/01 11:23:55;;;;;;;15.32;12.63;;;;;;;21.88;54.63;97957.91;5127688;28;20039;-73
2023/07/01 11:26:24;;;;;;;13.95;12.55;;;;;;;23.87;55.00;98288.53;5126895;28;20043;-72
2023/07/01 11:28:52;;;;;;;14.35;12.52;;;;;;;23.85;54.95;98296.00;5127778;28;20044;-73
2023/07/01 11:31:20;;;;;;;15.23;13.43;;;;;;;23.69;55.13;98290.84;5127180;28;20081;-72
2023/07/01 11:33:48;;;;;;;15.85;13.70;;;;;;;23.69;55.27;98296.28;5109827;28;20051;-72